CPX726 Details

Departure: El Nuevo Dorado International Airport (SKBO) at 0510 UTC
Arrival: Miami International Airport (KMIA) at 0815 UTC
Route: UCA UA301 URSUS FLIPR5
Notes:


Current Weather Information
SKBO 191700Z 14026KT 9999 VCSH SCT020 BKN080 15/06 A3041 NOSIG RMK VCSH N/W
KMIA 191653Z 09019G22KT 10SM BKN035CB BKN095 BKN200 32/22 A3007 RMK AO2 SLP181 CB E MOV W T03170217